Skip Navigation Links
NOAA logo - Click to go to the NOAA homepage
NOAA's National Weather Service
Alaska Aviation Weather Unit
  NWS logo - Click to go to the NWS homepage
Left Navbar Graphic     00 AKDT = 08 GMT

   
NOAA is celebrating 200 years of science, service, and stewardship. Visit the NOAA 200th celebration Web site to learn more.
USA.gov is the U.S. Government's official Web portal to all Federal, state and local government Web resources and services.
Facebook
NWS on Facebook

Important Change Regarding the AAWU Web Presence

 

Over the last several months, the AAWU has been working to navigate its webpages to a nationally supported server. Security, as well as other needs, have necessitated the change.  We have been given an extension for the site changeover while we diligently work at addressing feedback received. As of July 14, 2017, aawu.arh.noaa.gov will be discontinued. The new AAWU web address is weather.gov/aawu. It is now live and will run in-parallel with the old site until it is discontinued on July 14, 2017. Please continue to send any feedback or questions regarding the new webpages to nws.ar.aawu.webauthors@noaa.gov.  Thank you for your patience during this time of transition.
AAWU Home :: Display TAF Add Bookmark
TAF PAIL 240543Z 2406/2506  07006KT P6SM -RA OVC040
     FM241200 24004KT P6SM -RA FEW010 OVC020
     FM241800 22008KT P6SM -SHRA SCT020 BKN035=

4708
FTAK31 PANC 240543
TAFABE
TAF

METAR PAIL 240253Z 09011KT 10SM -RA FEW049 BKN055 OVC070 12/08 A2935 RMK AO2 RAE07B33 SLP938 P0000 60000 T01170083 53002= METAR PAIL 240353Z 10006KT 10SM -RA FEW046 OVC060 11/09 A2935 RMK AO2 SLP940 P0002 T01060094= METAR PAIL 240453Z 00000KT 10SM -RA OVC055 10/09 A2936 RMK AO2 SLP943 P0003 T01000094= METAR PAIL 240553Z AUTO 00000KT 8SM -RA FEW041 OVC055 09/09 A2936 RMK AO2 SLP945 P0003 60008 T00940094 10122 20094 52006 TSNO= METAR PAIL 240653Z AUTO 00000KT 4SM RA BR BKN033 OVC050 09/09 A2937 RMK AO2 SLP946 P0006 T00940094 TSNO= METAR PAIL 240753Z AUTO 04003KT 8SM RA SCT012 BKN018 OVC036 09/09 A2938 RMK AO2 SLP950 P0007 T00940094 TSNO=
 Alaska TAF Map

NOAA's National Weather Service
Alaska Aviation Weather Unit
6930 Sand Lake Road
Anchorage, AK 99502-1845
Disclaimer
Credits
Glossary
Privacy Policy
About Us
Career Opportunities
Contact AAWU Internet Services Site last modified: April, 17th 2012